sensor_id;sensor_type;location;lat;lon;timestamp;temperature;humidity
3921;DHT22;1975;49.356;6.816;2023-04-01T00:01:18;11.10;99.90
3921;DHT22;1975;49.356;6.816;2023-04-01T00:03:43;11.10;99.90
3921;DHT22;1975;49.356;6.816;2023-04-01T00:06:11;11.10;99.90
3921;DHT22;1975;49.356;6.816;2023-04-01T00:08:37;11.10;99.90
3921;DHT22;1975;49.356;6.816;2023-04-01T00:11:03;11.10;99.90
3921;DHT22;1975;49.356;6.816;2023-04-01T00:13:28;11.10;99.90
3921;DHT22;1975;49.356;6.816;2023-04-01T00:15:54;11.10;99.90
3921;DHT22;1975;49.356;6.816;2023-04-01T00:18:20;11.10;99.90
3921;DHT22;1975;49.356;6.816;2023-04-01T00:20:46;11.10;99.90
3921;DHT22;1975;49.356;6.816;2023-04-01T00:23:12;11.10;99.90
3921;DHT22;1975;49.356;6.816;2023-04-01T00:25:38;11.10;99.90
3921;DHT22;1975;49.356;6.816;2023-04-01T00:28:03;11.10;99.90
3921;DHT22;1975;49.356;6.816;2023-04-01T00:30:29;11.10;99.90
3921;DHT22;1975;49.356;6.816;2023-04-01T00:32:54;11.10;99.90
3921;DHT22;1975;49.356;6.816;2023-04-01T00:35:20;11.10;99.90
3921;DHT22;1975;49.356;6.816;2023-04-01T00:37:45;11.10;99.90
3921;DHT22;1975;49.356;6.816;2023-04-01T00:40:26;11.10;99.90
3921;DHT22;1975;49.356;6.816;2023-04-01T00:42:52;11.10;99.90
3921;DHT22;1975;49.356;6.816;2023-04-01T00:47:52;11.10;99.90
3921;DHT22;1975;49.356;6.816;2023-04-01T00:50:18;11.00;99.90
3921;DHT22;1975;49.356;6.816;2023-04-01T00:52:44;11.10;99.90
3921;DHT22;1975;49.356;6.816;2023-04-01T00:55:10;11.10;99.90
3921;DHT22;1975;49.356;6.816;2023-04-01T00:57:36;11.00;99.90
3921;DHT22;1975;49.356;6.816;2023-04-01T01:00:04;11.00;99.90
3921;DHT22;1975;49.356;6.816;2023-04-01T01:02:30;11.00;99.90
3921;DHT22;1975;49.356;6.816;2023-04-01T01:04:56;11.00;99.90
3921;DHT22;1975;49.356;6.816;2023-04-01T01:10:08;11.00;99.90
3921;DHT22;1975;49.356;6.816;2023-04-01T01:12:36;11.00;99.90
3921;DHT22;1975;49.356;6.816;2023-04-01T01:20:03;11.00;99.90
3921;DHT22;1975;49.356;6.816;2023-04-01T01:25:12;11.00;99.90
3921;DHT22;1975;49.356;6.816;2023-04-01T01:27:41;11.00;99.90
3921;DHT22;1975;49.356;6.816;2023-04-01T01:38:04;11.00;99.90
3921;DHT22;1975;49.356;6.816;2023-04-01T01:40:31;11.00;99.90
3921;DHT22;1975;49.356;6.816;2023-04-01T01:42:59;11.00;99.90
3921;DHT22;1975;49.356;6.816;2023-04-01T01:45:26;11.00;99.90
3921;DHT22;1975;49.356;6.816;2023-04-01T01:47:52;11.00;99.90
3921;DHT22;1975;49.356;6.816;2023-04-01T01:50:18;11.00;99.90
3921;DHT22;1975;49.356;6.816;2023-04-01T01:52:45;11.00;99.90
3921;DHT22;1975;49.356;6.816;2023-04-01T01:55:23;10.90;99.90
3921;DHT22;1975;49.356;6.816;2023-04-01T01:57:50;10.90;99.90
3921;DHT22;1975;49.356;6.816;2023-04-01T02:00:16;10.90;99.90
3921;DHT22;1975;49.356;6.816;2023-04-01T02:02:42;10.90;99.90
3921;DHT22;1975;49.356;6.816;2023-04-01T02:05:15;10.90;99.90
3921;DHT22;1975;49.356;6.816;2023-04-01T02:07:41;10.90;99.90
3921;DHT22;1975;49.356;6.816;2023-04-01T02:10:07;10.90;99.90
3921;DHT22;1975;49.356;6.816;2023-04-01T02:12:34;10.90;99.90
3921;DHT22;1975;49.356;6.816;2023-04-01T02:15:03;10.90;99.90
3921;DHT22;1975;49.356;6.816;2023-04-01T02:17:30;10.90;99.90
3921;DHT22;1975;49.356;6.816;2023-04-01T02:19:57;10.90;99.90
3921;DHT22;1975;49.356;6.816;2023-04-01T02:22:28;10.90;99.90
3921;DHT22;1975;49.356;6.816;2023-04-01T02:24:54;10.90;99.90
3921;DHT22;1975;49.356;6.816;2023-04-01T02:27:22;10.90;99.90
3921;DHT22;1975;49.356;6.816;2023-04-01T02:29:49;10.90;99.90
3921;DHT22;1975;49.356;6.816;2023-04-01T02:32:14;10.90;99.90
3921;DHT22;1975;49.356;6.816;2023-04-01T02:34:41;10.90;99.90
3921;DHT22;1975;49.356;6.816;2023-04-01T02:37:07;10.90;99.90
3921;DHT22;1975;49.356;6.816;2023-04-01T02:39:33;10.90;99.90
3921;DHT22;1975;49.356;6.816;2023-04-01T02:41:58;10.90;99.90
3921;DHT22;1975;49.356;6.816;2023-04-01T02:44:24;10.90;99.90
3921;DHT22;1975;49.356;6.816;2023-04-01T02:46:49;10.90;99.90
3921;DHT22;1975;49.356;6.816;2023-04-01T02:49:15;10.90;99.90
3921;DHT22;1975;49.356;6.816;2023-04-01T02:51:40;10.90;99.90
3921;DHT22;1975;49.356;6.816;2023-04-01T02:54:06;10.90;99.90
3921;DHT22;1975;49.356;6.816;2023-04-01T02:56:31;10.90;99.90
3921;DHT22;1975;49.356;6.816;2023-04-01T02:58:57;10.80;99.90
3921;DHT22;1975;49.356;6.816;2023-04-01T03:01:22;10.90;99.90
3921;DHT22;1975;49.356;6.816;2023-04-01T03:03:48;10.80;99.90
3921;DHT22;1975;49.356;6.816;2023-04-01T03:06:14;10.80;99.90
3921;DHT22;1975;49.356;6.816;2023-04-01T03:08:40;10.80;99.90
3921;DHT22;1975;49.356;6.816;2023-04-01T03:11:05;10.80;99.90
3921;DHT22;1975;49.356;6.816;2023-04-01T03:13:31;10.80;99.90
3921;DHT22;1975;49.356;6.816;2023-04-01T03:15:57;10.80;99.90
3921;DHT22;1975;49.356;6.816;2023-04-01T03:18:22;10.80;99.90
3921;DHT22;1975;49.356;6.816;2023-04-01T03:20:48;10.80;99.90
3921;DHT22;1975;49.356;6.816;2023-04-01T03:23:13;10.80;99.90
3921;DHT22;1975;49.356;6.816;2023-04-01T03:25:39;10.80;99.90
3921;DHT22;1975;49.356;6.816;2023-04-01T03:28:04;10.80;99.90
3921;DHT22;1975;49.356;6.816;2023-04-01T03:30:30;10.80;99.90
3921;DHT22;1975;49.356;6.816;2023-04-01T03:32:59;10.80;99.90
3921;DHT22;1975;49.356;6.816;2023-04-01T03:35:26;10.80;99.90
3921;DHT22;1975;49.356;6.816;2023-04-01T03:37:52;10.80;99.90
3921;DHT22;1975;49.356;6.816;2023-04-01T03:40:17;10.80;99.90
3921;DHT22;1975;49.356;6.816;2023-04-01T03:42:43;10.80;99.90
3921;DHT22;1975;49.356;6.816;2023-04-01T03:45:08;10.80;99.90
3921;DHT22;1975;49.356;6.816;2023-04-01T03:47:34;10.80;99.90
3921;DHT22;1975;49.356;6.816;2023-04-01T03:50:00;10.80;99.90
3921;DHT22;1975;49.356;6.816;2023-04-01T03:52:25;10.80;99.90
3921;DHT22;1975;49.356;6.816;2023-04-01T03:54:51;10.80;99.90
3921;DHT22;1975;49.356;6.816;2023-04-01T03:57:16;10.80;99.90
3921;DHT22;1975;49.356;6.816;2023-04-01T03:59:41;10.70;99.90
3921;DHT22;1975;49.356;6.816;2023-04-01T04:02:07;10.70;99.90
3921;DHT22;1975;49.356;6.816;2023-04-01T04:04:32;10.80;99.90
3921;DHT22;1975;49.356;6.816;2023-04-01T04:06:58;10.70;99.90
3921;DHT22;1975;49.356;6.816;2023-04-01T04:09:24;10.70;99.90
3921;DHT22;1975;49.356;6.816;2023-04-01T04:11:49;10.70;99.90
3921;DHT22;1975;49.356;6.816;2023-04-01T04:14:16;10.70;99.90
3921;DHT22;1975;49.356;6.816;2023-04-01T04:16:41;10.70;99.90
3921;DHT22;1975;49.356;6.816;2023-04-01T04:19:07;10.70;99.90
3921;DHT22;1975;49.356;6.816;2023-04-01T04:21:32;10.70;99.90
3921;DHT22;1975;49.356;6.816;2023-04-01T04:23:58;10.70;99.90
3921;DHT22;1975;49.356;6.816;2023-04-01T04:26:24;10.70;99.90
3921;DHT22;1975;49.356;6.816;2023-04-01T04:28:49;10.70;99.90
3921;DHT22;1975;49.356;6.816;2023-04-01T04:31:19;10.70;99.90
3921;DHT22;1975;49.356;6.816;2023-04-01T04:33:45;10.70;99.90
3921;DHT22;1975;49.356;6.816;2023-04-01T04:36:10;10.70;99.90
3921;DHT22;1975;49.356;6.816;2023-04-01T04:38:36;10.70;99.90
3921;DHT22;1975;49.356;6.816;2023-04-01T04:41:01;10.70;99.90
3921;DHT22;1975;49.356;6.816;2023-04-01T04:43:26;10.70;99.90
3921;DHT22;1975;49.356;6.816;2023-04-01T04:45:52;10.70;99.90
3921;DHT22;1975;49.356;6.816;2023-04-01T04:48:17;10.70;99.90
3921;DHT22;1975;49.356;6.816;2023-04-01T04:50:47;10.70;99.90
3921;DHT22;1975;49.356;6.816;2023-04-01T04:53:14;10.70;99.90
3921;DHT22;1975;49.356;6.816;2023-04-01T04:55:42;10.70;99.90
3921;DHT22;1975;49.356;6.816;2023-04-01T04:58:08;10.70;99.90
3921;DHT22;1975;49.356;6.816;2023-04-01T05:00:33;10.70;99.90
3921;DHT22;1975;49.356;6.816;2023-04-01T05:02:59;10.70;99.90
3921;DHT22;1975;49.356;6.816;2023-04-01T05:05:24;10.70;99.90
3921;DHT22;1975;49.356;6.816;2023-04-01T05:07:50;10.70;99.90
3921;DHT22;1975;49.356;6.816;2023-04-01T05:10:15;10.70;99.90
3921;DHT22;1975;49.356;6.816;2023-04-01T05:12:41;10.70;99.90
3921;DHT22;1975;49.356;6.816;2023-04-01T05:15:07;10.60;99.90
3921;DHT22;1975;49.356;6.816;2023-04-01T05:17:32;10.60;99.90
3921;DHT22;1975;49.356;6.816;2023-04-01T05:19:58;10.60;99.90
3921;DHT22;1975;49.356;6.816;2023-04-01T05:22:23;10.60;99.90
3921;DHT22;1975;49.356;6.816;2023-04-01T05:24:49;10.60;99.90
3921;DHT22;1975;49.356;6.816;2023-04-01T05:27:14;10.60;99.90
3921;DHT22;1975;49.356;6.816;2023-04-01T05:29:40;10.60;99.90
3921;DHT22;1975;49.356;6.816;2023-04-01T05:32:05;10.60;99.90
3921;DHT22;1975;49.356;6.816;2023-04-01T05:34:31;10.60;99.90
3921;DHT22;1975;49.356;6.816;2023-04-01T05:36:56;10.60;99.90
3921;DHT22;1975;49.356;6.816;2023-04-01T05:39:22;10.60;99.90
3921;DHT22;1975;49.356;6.816;2023-04-01T05:41:48;10.60;99.90
3921;DHT22;1975;49.356;6.816;2023-04-01T05:44:14;10.60;99.90
3921;DHT22;1975;49.356;6.816;2023-04-01T05:46:39;10.60;99.90
3921;DHT22;1975;49.356;6.816;2023-04-01T05:49:05;10.60;99.90
3921;DHT22;1975;49.356;6.816;2023-04-01T05:51:30;10.60;99.90
3921;DHT22;1975;49.356;6.816;2023-04-01T05:53:56;10.60;99.90
3921;DHT22;1975;49.356;6.816;2023-04-01T05:56:21;10.60;99.90
3921;DHT22;1975;49.356;6.816;2023-04-01T05:58:47;10.60;99.90
3921;DHT22;1975;49.356;6.816;2023-04-01T06:01:15;10.60;99.90
3921;DHT22;1975;49.356;6.816;2023-04-01T06:03:41;10.50;99.90
3921;DHT22;1975;49.356;6.816;2023-04-01T06:06:11;10.60;99.90
3921;DHT22;1975;49.356;6.816;2023-04-01T06:08:39;10.60;99.90
3921;DHT22;1975;49.356;6.816;2023-04-01T06:13:42;10.60;99.90
3921;DHT22;1975;49.356;6.816;2023-04-01T06:16:25;10.60;99.90
3921;DHT22;1975;49.356;6.816;2023-04-01T06:27:07;10.50;99.90
3921;DHT22;1975;49.356;6.816;2023-04-01T06:29:48;10.50;99.90
3921;DHT22;1975;49.356;6.816;2023-04-01T06:35:06;10.50;99.90
3921;DHT22;1975;49.356;6.816;2023-04-01T06:37:58;10.50;99.90
3921;DHT22;1975;49.356;6.816;2023-04-01T06:40:36;10.50;99.90
3921;DHT22;1975;49.356;6.816;2023-04-01T06:45:45;10.50;99.90
3921;DHT22;1975;49.356;6.816;2023-04-01T06:48:36;10.50;99.90
3921;DHT22;1975;49.356;6.816;2023-04-01T06:51:13;10.50;99.90
3921;DHT22;1975;49.356;6.816;2023-04-01T06:53:49;10.50;99.90
3921;DHT22;1975;49.356;6.816;2023-04-01T06:56:19;10.50;99.90
3921;DHT22;1975;49.356;6.816;2023-04-01T07:01:13;10.50;99.90
3921;DHT22;1975;49.356;6.816;2023-04-01T07:03:41;10.50;99.90
3921;DHT22;1975;49.356;6.816;2023-04-01T07:06:50;10.50;99.90
3921;DHT22;1975;49.356;6.816;2023-04-01T07:08:57;10.50;99.90
3921;DHT22;1975;49.356;6.816;2023-04-01T07:11:27;10.50;99.90
3921;DHT22;1975;49.356;6.816;2023-04-01T07:13:54;10.50;99.90
3921;DHT22;1975;49.356;6.816;2023-04-01T07:16:24;10.50;99.90
3921;DHT22;1975;49.356;6.816;2023-04-01T07:19:02;10.50;99.90
3921;DHT22;1975;49.356;6.816;2023-04-01T07:21:40;10.50;99.90
3921;DHT22;1975;49.356;6.816;2023-04-01T07:24:11;10.50;99.90
3921;DHT22;1975;49.356;6.816;2023-04-01T07:26:41;10.50;99.90
3921;DHT22;1975;49.356;6.816;2023-04-01T07:29:11;10.50;99.90
3921;DHT22;1975;49.356;6.816;2023-04-01T07:31:49;10.50;99.90
3921;DHT22;1975;49.356;6.816;2023-04-01T07:34:23;10.50;99.90
3921;DHT22;1975;49.356;6.816;2023-04-01T07:42:27;10.50;99.90
3921;DHT22;1975;49.356;6.816;2023-04-01T07:47:32;10.50;99.90
3921;DHT22;1975;49.356;6.816;2023-04-01T07:52:53;10.50;99.90
3921;DHT22;1975;49.356;6.816;2023-04-01T08:10:52;10.50;99.90
3921;DHT22;1975;49.356;6.816;2023-04-01T08:13:53;10.50;99.90
3921;DHT22;1975;49.356;6.816;2023-04-01T08:18:47;10.50;99.90
3921;DHT22;1975;49.356;6.816;2023-04-01T08:21:21;10.50;99.90
3921;DHT22;1975;49.356;6.816;2023-04-01T08:23:49;10.50;99.90
3921;DHT22;1975;49.356;6.816;2023-04-01T08:26:30;10.50;99.90
3921;DHT22;1975;49.356;6.816;2023-04-01T08:29:01;10.50;99.90
3921;DHT22;1975;49.356;6.816;2023-04-01T08:31:43;10.50;99.90
3921;DHT22;1975;49.356;6.816;2023-04-01T08:34:31;10.50;99.90
3921;DHT22;1975;49.356;6.816;2023-04-01T08:37:00;10.50;99.90
3921;DHT22;1975;49.356;6.816;2023-04-01T08:39:31;10.50;99.90
3921;DHT22;1975;49.356;6.816;2023-04-01T08:47:30;10.50;99.90
3921;DHT22;1975;49.356;6.816;2023-04-01T08:52:33;10.60;99.90
3921;DHT22;1975;49.356;6.816;2023-04-01T08:57:44;10.50;99.90
3921;DHT22;1975;49.356;6.816;2023-04-01T09:00:15;10.60;99.90
3921;DHT22;1975;49.356;6.816;2023-04-01T09:13:30;10.60;99.90
3921;DHT22;1975;49.356;6.816;2023-04-01T09:18:34;10.60;99.90
3921;DHT22;1975;49.356;6.816;2023-04-01T09:24:02;10.60;99.90
3921;DHT22;1975;49.356;6.816;2023-04-01T09:26:41;10.60;99.90
3921;DHT22;1975;49.356;6.816;2023-04-01T09:31:47;10.60;99.90
3921;DHT22;1975;49.356;6.816;2023-04-01T09:34:21;10.60;99.90
3921;DHT22;1975;49.356;6.816;2023-04-01T09:36:55;10.60;99.90
3921;DHT22;1975;49.356;6.816;2023-04-01T09:39:30;10.60;99.90
3921;DHT22;1975;49.356;6.816;2023-04-01T09:44:28;10.60;99.90
3921;DHT22;1975;49.356;6.816;2023-04-01T09:47:00;10.60;99.90
3921;DHT22;1975;49.356;6.816;2023-04-01T09:54:51;10.60;99.90
3921;DHT22;1975;49.356;6.816;2023-04-01T09:57:28;10.60;99.90
3921;DHT22;1975;49.356;6.816;2023-04-01T10:02:45;10.60;99.90
3921;DHT22;1975;49.356;6.816;2023-04-01T10:28:43;10.70;99.90
3921;DHT22;1975;49.356;6.816;2023-04-01T10:36:49;10.70;99.90
3921;DHT22;1975;49.356;6.816;2023-04-01T10:39:27;10.70;99.90
3921;DHT22;1975;49.356;6.816;2023-04-01T11:06:18;10.70;99.90
3921;DHT22;1975;49.356;6.816;2023-04-01T11:11:35;10.70;99.90
3921;DHT22;1975;49.356;6.816;2023-04-01T11:19:33;10.70;99.90
3921;DHT22;1975;49.356;6.816;2023-04-01T11:24:41;10.70;99.90
3921;DHT22;1975;49.356;6.816;2023-04-01T11:34:54;10.70;99.90
3921;DHT22;1975;49.356;6.816;2023-04-01T11:40:35;10.70;99.90
3921;DHT22;1975;49.356;6.816;2023-04-01T11:53:11;10.70;99.90
3921;DHT22;1975;49.356;6.816;2023-04-01T11:55:46;10.80;99.90
3921;DHT22;1975;49.356;6.816;2023-04-01T11:58:22;10.70;99.90
3921;DHT22;1975;49.356;6.816;2023-04-01T12:03:38;10.70;99.90
3921;DHT22;1975;49.356;6.816;2023-04-01T12:18:55;10.80;99.90
3921;DHT22;1975;49.356;6.816;2023-04-01T12:21:35;10.80;99.90
3921;DHT22;1975;49.356;6.816;2023-04-01T12:24:04;10.80;99.90
3921;DHT22;1975;49.356;6.816;2023-04-01T12:31:42;10.80;99.90
3921;DHT22;1975;49.356;6.816;2023-04-01T12:34:20;10.80;99.90
3921;DHT22;1975;49.356;6.816;2023-04-01T12:37:00;10.70;99.90
3921;DHT22;1975;49.356;6.816;2023-04-01T12:45:01;10.80;99.90
3921;DHT22;1975;49.356;6.816;2023-04-01T12:47:37;10.80;99.90
3921;DHT22;1975;49.356;6.816;2023-04-01T12:52:54;10.80;99.90
3921;DHT22;1975;49.356;6.816;2023-04-01T12:55:37;10.80;99.90
3921;DHT22;1975;49.356;6.816;2023-04-01T13:00:57;10.80;99.90
3921;DHT22;1975;49.356;6.816;2023-04-01T13:08:55;10.80;99.90
3921;DHT22;1975;49.356;6.816;2023-04-01T13:11:31;10.80;99.90
3921;DHT22;1975;49.356;6.816;2023-04-01T13:14:16;10.80;99.90
3921;DHT22;1975;49.356;6.816;2023-04-01T13:16:47;10.80;99.90
3921;DHT22;1975;49.356;6.816;2023-04-01T13:21:55;10.80;99.90
3921;DHT22;1975;49.356;6.816;2023-04-01T13:29:40;10.80;99.90
3921;DHT22;1975;49.356;6.816;2023-04-01T13:37:57;10.70;99.90
3921;DHT22;1975;49.356;6.816;2023-04-01T13:40:23;10.70;99.90
3921;DHT22;1975;49.356;6.816;2023-04-01T13:45:19;10.80;99.90
3921;DHT22;1975;49.356;6.816;2023-04-01T13:53:20;10.70;99.90
3921;DHT22;1975;49.356;6.816;2023-04-01T13:58:34;10.70;99.90
3921;DHT22;1975;49.356;6.816;2023-04-01T14:01:13;10.70;99.90
3921;DHT22;1975;49.356;6.816;2023-04-01T14:03:45;10.70;99.90
3921;DHT22;1975;49.356;6.816;2023-04-01T14:06:27;10.70;99.90
3921;DHT22;1975;49.356;6.816;2023-04-01T14:09:00;10.70;99.90
3921;DHT22;1975;49.356;6.816;2023-04-01T14:11:39;10.70;99.90
3921;DHT22;1975;49.356;6.816;2023-04-01T14:34:38;10.80;99.90
3921;DHT22;1975;49.356;6.816;2023-04-01T14:40:00;10.80;99.90
3921;DHT22;1975;49.356;6.816;2023-04-01T14:45:02;10.80;99.90
3921;DHT22;1975;49.356;6.816;2023-04-01T14:50:23;10.80;99.90
3921;DHT22;1975;49.356;6.816;2023-04-01T14:58:09;10.80;99.90
3921;DHT22;1975;49.356;6.816;2023-04-01T15:06:18;10.30;99.90
3921;DHT22;1975;49.356;6.816;2023-04-01T15:09:04;10.10;99.90
3921;DHT22;1975;49.356;6.816;2023-04-01T15:11:52;10.00;99.90
3921;DHT22;1975;49.356;6.816;2023-04-01T15:14:23;10.00;99.90
3921;DHT22;1975;49.356;6.816;2023-04-01T15:19:41;9.90;99.90
3921;DHT22;1975;49.356;6.816;2023-04-01T15:27:25;10.30;99.90
3921;DHT22;1975;49.356;6.816;2023-04-01T15:32:55;10.40;99.90
3921;DHT22;1975;49.356;6.816;2023-04-01T15:36:04;10.40;99.90
3921;DHT22;1975;49.356;6.816;2023-04-01T15:38:18;10.50;99.90
3921;DHT22;1975;49.356;6.816;2023-04-01T15:40:47;10.50;99.90
3921;DHT22;1975;49.356;6.816;2023-04-01T15:43:36;10.50;99.90
3921;DHT22;1975;49.356;6.816;2023-04-01T15:46:18;10.50;99.90
3921;DHT22;1975;49.356;6.816;2023-04-01T15:51:19;10.40;99.90
3921;DHT22;1975;49.356;6.816;2023-04-01T15:58:52;9.90;99.90
3921;DHT22;1975;49.356;6.816;2023-04-01T16:06:43;9.70;99.90
3921;DHT22;1975;49.356;6.816;2023-04-01T16:11:57;9.70;99.90
3921;DHT22;1975;49.356;6.816;2023-04-01T16:17:00;9.70;99.90
3921;DHT22;1975;49.356;6.816;2023-04-01T16:19:41;9.80;99.90
3921;DHT22;1975;49.356;6.816;2023-04-01T16:22:14;9.80;99.90
3921;DHT22;1975;49.356;6.816;2023-04-01T16:24:50;9.70;99.90
3921;DHT22;1975;49.356;6.816;2023-04-01T16:27:19;9.80;99.90
3921;DHT22;1975;49.356;6.816;2023-04-01T16:29:52;9.80;99.90
3921;DHT22;1975;49.356;6.816;2023-04-01T16:34:58;9.70;99.90
3921;DHT22;1975;49.356;6.816;2023-04-01T16:40:24;9.70;99.90
3921;DHT22;1975;49.356;6.816;2023-04-01T16:42:51;9.70;99.90
3921;DHT22;1975;49.356;6.816;2023-04-01T16:50:29;9.70;99.90
3921;DHT22;1975;49.356;6.816;2023-04-01T16:55:34;9.60;99.90
3921;DHT22;1975;49.356;6.816;2023-04-01T16:58:00;9.60;99.90
3921;DHT22;1975;49.356;6.816;2023-04-01T17:00:27;9.60;99.90
3921;DHT22;1975;49.356;6.816;2023-04-01T17:03:11;9.50;99.90
3921;DHT22;1975;49.356;6.816;2023-04-01T17:08:17;9.80;99.90
3921;DHT22;1975;49.356;6.816;2023-04-01T17:10:54;9.90;99.90
3921;DHT22;1975;49.356;6.816;2023-04-01T17:13:27;10.00;99.90
3921;DHT22;1975;49.356;6.816;2023-04-01T17:21:10;10.20;99.90
3921;DHT22;1975;49.356;6.816;2023-04-01T17:23:38;10.20;99.90
3921;DHT22;1975;49.356;6.816;2023-04-01T17:26:54;10.20;99.90
3921;DHT22;1975;49.356;6.816;2023-04-01T17:31:36;10.30;99.90
3921;DHT22;1975;49.356;6.816;2023-04-01T17:39:40;10.30;99.90
3921;DHT22;1975;49.356;6.816;2023-04-01T17:42:09;10.30;99.90
3921;DHT22;1975;49.356;6.816;2023-04-01T17:47:07;10.30;99.90
3921;DHT22;1975;49.356;6.816;2023-04-01T17:54:44;10.30;99.90
3921;DHT22;1975;49.356;6.816;2023-04-01T17:57:57;10.30;99.90
3921;DHT22;1975;49.356;6.816;2023-04-01T18:00:06;10.30;99.90
3921;DHT22;1975;49.356;6.816;2023-04-01T18:05:37;10.40;99.90
3921;DHT22;1975;49.356;6.816;2023-04-01T18:10:57;10.30;99.90
3921;DHT22;1975;49.356;6.816;2023-04-01T18:16:13;10.40;99.90
3921;DHT22;1975;49.356;6.816;2023-04-01T18:26:35;10.40;99.90
3921;DHT22;1975;49.356;6.816;2023-04-01T18:29:24;10.40;99.90
3921;DHT22;1975;49.356;6.816;2023-04-01T18:31:54;10.40;99.90
3921;DHT22;1975;49.356;6.816;2023-04-01T18:37:17;10.40;99.90
3921;DHT22;1975;49.356;6.816;2023-04-01T18:39:47;10.40;99.90
3921;DHT22;1975;49.356;6.816;2023-04-01T18:42:24;10.30;99.90
3921;DHT22;1975;49.356;6.816;2023-04-01T18:44:57;10.40;99.90
3921;DHT22;1975;49.356;6.816;2023-04-01T18:52:40;10.40;99.90
3921;DHT22;1975;49.356;6.816;2023-04-01T19:02:43;10.40;99.90
3921;DHT22;1975;49.356;6.816;2023-04-01T19:07:54;10.40;99.90
3921;DHT22;1975;49.356;6.816;2023-04-01T19:12:48;10.40;99.90
3921;DHT22;1975;49.356;6.816;2023-04-01T19:20:40;10.40;99.90
3921;DHT22;1975;49.356;6.816;2023-04-01T19:30:59;10.40;99.90
3921;DHT22;1975;49.356;6.816;2023-04-01T19:38:28;10.40;99.90
3921;DHT22;1975;49.356;6.816;2023-04-01T19:46:09;10.40;99.90
3921;DHT22;1975;49.356;6.816;2023-04-01T19:53:35;10.30;99.90
3921;DHT22;1975;49.356;6.816;2023-04-01T19:56:16;10.30;99.90
3921;DHT22;1975;49.356;6.816;2023-04-01T20:01:08;10.30;99.90
3921;DHT22;1975;49.356;6.816;2023-04-01T20:03:58;10.30;99.90
3921;DHT22;1975;49.356;6.816;2023-04-01T20:06:32;10.30;99.90
3921;DHT22;1975;49.356;6.816;2023-04-01T20:11:54;10.30;99.90
3921;DHT22;1975;49.356;6.816;2023-04-01T20:17:30;10.30;99.90
3921;DHT22;1975;49.356;6.816;2023-04-01T20:20:01;10.30;99.90
3921;DHT22;1975;49.356;6.816;2023-04-01T20:22:34;10.30;99.90
3921;DHT22;1975;49.356;6.816;2023-04-01T20:25:12;10.30;99.90
3921;DHT22;1975;49.356;6.816;2023-04-01T20:27:41;10.30;99.90
3921;DHT22;1975;49.356;6.816;2023-04-01T20:40:57;10.30;99.90
3921;DHT22;1975;49.356;6.816;2023-04-01T20:48:45;10.30;99.90
3921;DHT22;1975;49.356;6.816;2023-04-01T20:51:16;10.30;99.90
3921;DHT22;1975;49.356;6.816;2023-04-01T20:53:43;10.30;99.90
3921;DHT22;1975;49.356;6.816;2023-04-01T20:56:17;10.30;99.90
3921;DHT22;1975;49.356;6.816;2023-04-01T21:03:45;10.30;99.90
3921;DHT22;1975;49.356;6.816;2023-04-01T21:09:02;10.30;99.90
3921;DHT22;1975;49.356;6.816;2023-04-01T21:11:55;10.30;99.90
3921;DHT22;1975;49.356;6.816;2023-04-01T21:17:05;10.30;99.90
3921;DHT22;1975;49.356;6.816;2023-04-01T21:30:07;10.30;99.90
3921;DHT22;1975;49.356;6.816;2023-04-01T21:38:06;10.30;99.90
3921;DHT22;1975;49.356;6.816;2023-04-01T21:40:49;10.30;99.90
3921;DHT22;1975;49.356;6.816;2023-04-01T21:43:25;10.30;99.90
3921;DHT22;1975;49.356;6.816;2023-04-01T21:51:23;10.30;99.90
3921;DHT22;1975;49.356;6.816;2023-04-01T22:01:41;10.30;99.90
3921;DHT22;1975;49.356;6.816;2023-04-01T22:06:53;10.30;99.90
3921;DHT22;1975;49.356;6.816;2023-04-01T22:09:23;10.30;99.90
3921;DHT22;1975;49.356;6.816;2023-04-01T22:11:52;10.30;99.90
3921;DHT22;1975;49.356;6.816;2023-04-01T22:17:16;10.30;99.90
3921;DHT22;1975;49.356;6.816;2023-04-01T22:19:59;10.30;99.90
3921;DHT22;1975;49.356;6.816;2023-04-01T22:26:02;10.20;99.90
3921;DHT22;1975;49.356;6.816;2023-04-01T22:30:36;10.30;99.90
3921;DHT22;1975;49.356;6.816;2023-04-01T22:35:33;10.30;99.90
3921;DHT22;1975;49.356;6.816;2023-04-01T22:40:44;10.20;99.90
3921;DHT22;1975;49.356;6.816;2023-04-01T22:43:11;10.30;99.90
3921;DHT22;1975;49.356;6.816;2023-04-01T22:48:09;10.20;99.90
3921;DHT22;1975;49.356;6.816;2023-04-01T22:50:43;10.30;99.90
3921;DHT22;1975;49.356;6.816;2023-04-01T22:53:35;10.30;99.90
3921;DHT22;1975;49.356;6.816;2023-04-01T22:56:05;10.20;99.90
3921;DHT22;1975;49.356;6.816;2023-04-01T22:58:39;10.20;99.90
3921;DHT22;1975;49.356;6.816;2023-04-01T23:01:06;10.20;99.90
3921;DHT22;1975;49.356;6.816;2023-04-01T23:03:34;10.20;99.90
3921;DHT22;1975;49.356;6.816;2023-04-01T23:06:02;10.20;99.90
3921;DHT22;1975;49.356;6.816;2023-04-01T23:11:33;10.20;99.90
3921;DHT22;1975;49.356;6.816;2023-04-01T23:14:59;10.20;99.90
3921;DHT22;1975;49.356;6.816;2023-04-01T23:16:56;10.20;99.90
3921;DHT22;1975;49.356;6.816;2023-04-01T23:19:37;10.20;99.90
3921;DHT22;1975;49.356;6.816;2023-04-01T23:22:11;10.20;99.90
3921;DHT22;1975;49.356;6.816;2023-04-01T23:24:44;10.20;99.90
3921;DHT22;1975;49.356;6.816;2023-04-01T23:27:21;10.20;99.90
3921;DHT22;1975;49.356;6.816;2023-04-01T23:29:48;10.20;99.90
3921;DHT22;1975;49.356;6.816;2023-04-01T23:32:15;10.20;99.90
3921;DHT22;1975;49.356;6.816;2023-04-01T23:34:44;10.20;99.90
3921;DHT22;1975;49.356;6.816;2023-04-01T23:37:11;10.20;99.90
3921;DHT22;1975;49.356;6.816;2023-04-01T23:39:38;10.20;99.90
3921;DHT22;1975;49.356;6.816;2023-04-01T23:44:50;10.20;99.90
3921;DHT22;1975;49.356;6.816;2023-04-01T23:47:17;10.20;99.90
3921;DHT22;1975;49.356;6.816;2023-04-01T23:49:46;10.20;99.90
3921;DHT22;1975;49.356;6.816;2023-04-01T23:52:30;10.20;99.90
3921;DHT22;1975;49.356;6.816;2023-04-01T23:54:57;10.20;99.90
3921;DHT22;1975;49.356;6.816;2023-04-01T23:57:32;10.20;99.90
